Time;durP1;ratioP1;P1;durP2;ratioP2;P2;SDS_P1;SDS_P2;PMS_P1;PMS_P2;Temp;Humidity;BMP_temperature;BMP_pressure;BME280_temperature;BME280_humidity;BME280_pressure;Samples;Min_cycle;Max_cycle;Signal;HPM_P1;HPM_P2
2022/01/13 00:02:15;;;;;;;13.80;6.30;;;;;;;-7.87;58.36;102086.27;117370;1185;21942;-50
2022/01/13 00:04:46;;;;;;;14.90;5.80;;;;;;;-7.88;58.43;102085.91;117424;1185;23465;-62
2022/01/13 00:07:14;;;;;;;14.80;5.60;;;;;;;-7.87;58.47;102090.00;117421;1186;21849;-50
2022/01/13 00:09:43;;;;;;;15.10;5.70;;;;;;;-7.86;58.44;102088.58;117399;1185;21854;-50
2022/01/13 00:12:14;;;;;;;11.10;5.20;;;;;;;-7.86;58.39;102095.91;117412;1185;21979;-51
2022/01/13 00:15:06;;;;;;;14.50;5.60;;;;;;;-7.86;58.43;102102.39;117433;1186;21957;-62
2022/01/13 00:17:55;;;;;;;14.40;6.10;;;;;;;-7.85;58.44;102102.67;117394;1185;23478;-62
2022/01/13 00:20:31;;;;;;;13.20;5.30;;;;;;;-7.84;58.41;102105.64;117360;1185;21914;-50
2022/01/13 00:25:57;;;;;;;16.60;5.10;;;;;;;-7.81;58.40;102109.02;117413;1186;21848;-53
2022/01/13 00:28:26;;;;;;;;;;;;;;;-7.81;58.44;102109.86;117392;1183;22625;-62
2022/01/13 00:30:56;;;;;;;11.60;4.90;;;;;;;-7.82;58.31;102108.92;117407;1185;21879;-62
2022/01/13 00:33:25;;;;;;;17.30;5.70;;;;;;;-7.82;58.35;102109.93;117398;1185;23475;-62
2022/01/13 00:35:58;;;;;;;15.20;5.70;;;;;;;-7.84;58.24;102112.27;117419;1185;21851;-62
2022/01/13 00:38:27;;;;;;;15.60;6.20;;;;;;;-7.87;58.19;102106.41;117396;1186;21927;-51
2022/01/13 00:40:55;;;;;;;12.60;5.20;;;;;;;-7.89;58.19;102107.10;117427;1185;24158;-51
2022/01/13 00:43:24;;;;;;;10.80;5.40;;;;;;;-7.88;58.31;102106.85;117446;1185;21937;-51
2022/01/13 00:45:52;;;;;;;14.90;6.50;;;;;;;-7.85;58.43;102113.05;117429;1186;22618;-61
2022/01/13 00:48:20;;;;;;;13.10;5.70;;;;;;;-7.84;58.44;102113.17;117441;1176;21858;-62
2022/01/13 00:50:48;;;;;;;17.80;7.10;;;;;;;-7.84;58.38;102123.02;117336;1185;21857;-62
2022/01/13 00:53:17;;;;;;;15.30;6.70;;;;;;;-7.85;58.27;102122.59;117434;1183;23484;-50
2022/01/13 00:55:49;;;;;;;13.20;5.80;;;;;;;-7.86;58.28;102120.45;117440;1182;23448;-51
2022/01/13 00:58:17;;;;;;;12.40;4.90;;;;;;;-7.87;58.31;102121.59;117430;1185;21861;-50
2022/01/13 01:00:45;;;;;;;16.80;6.40;;;;;;;-7.89;58.21;102111.37;117432;1176;22314;-50
2022/01/13 01:03:14;;;;;;;13.70;6.40;;;;;;;-7.89;58.30;102111.64;117446;1182;21955;-51
2022/01/13 01:05:42;;;;;;;20.60;6.90;;;;;;;-7.91;58.29;102116.61;117405;1185;23561;-62
2022/01/13 01:08:12;;;;;;;13.10;5.80;;;;;;;-7.93;58.28;102116.14;117358;1185;21852;-62
2022/01/13 01:10:46;;;;;;;15.80;6.50;;;;;;;-7.95;58.36;102121.25;117418;1182;23443;-50
2022/01/13 01:13:19;;;;;;;16.40;6.70;;;;;;;-7.98;58.27;102121.52;117389;1183;23542;-50
2022/01/13 01:15:51;;;;;;;15.30;6.50;;;;;;;-7.98;58.35;102122.64;117469;1185;21859;-63
2022/01/13 01:23:36;;;;;;;16.00;7.40;;;;;;;-8.07;58.16;102127.95;117393;1186;21856;-62
2022/01/13 01:26:18;;;;;;;14.30;6.10;;;;;;;-8.04;58.19;102127.27;117372;1185;23573;-50
2022/01/13 01:28:53;;;;;;;13.10;6.20;;;;;;;-8.08;58.25;102133.13;117390;1183;23542;-51
2022/01/13 01:31:28;;;;;;;14.90;6.20;;;;;;;-8.09;58.19;102135.79;117294;1185;22102;-63
2022/01/13 01:34:26;;;;;;;12.60;5.80;;;;;;;-8.09;58.29;102132.23;117376;1185;23470;-50
2022/01/13 01:36:56;;;;;;;14.50;6.80;;;;;;;-8.10;58.39;102133.52;117329;1185;21861;-50
2022/01/13 01:39:24;;;;;;;12.10;5.30;;;;;;;-8.10;58.34;102137.38;117433;1180;22942;-50
2022/01/13 01:41:54;;;;;;;17.10;6.20;;;;;;;-8.13;58.19;102137.17;117352;1176;21854;-62
2022/01/13 01:44:35;;;;;;;18.80;6.30;;;;;;;-8.14;58.26;102136.92;117356;1185;21845;-50
2022/01/13 01:47:04;;;;;;;19.00;6.70;;;;;;;-8.12;58.43;102138.44;117390;1186;21858;-63
2022/01/13 01:49:38;;;;;;;16.20;7.10;;;;;;;-8.15;58.24;102130.33;117401;1176;21940;-63
2022/01/13 01:52:07;;;;;;;18.80;6.20;;;;;;;-8.16;58.16;102126.45;117406;1182;21851;-62
2022/01/13 01:54:36;;;;;;;18.60;6.80;;;;;;;-8.18;58.41;102127.47;117431;1185;21870;-63
2022/01/13 01:57:05;;;;;;;15.80;6.90;;;;;;;-8.16;58.39;102126.10;117410;1185;23448;-50
2022/01/13 01:59:36;;;;;;;13.80;6.80;;;;;;;-8.18;58.15;102125.08;117481;1184;22417;-63
2022/01/13 02:02:06;;;;;;;15.10;6.20;;;;;;;-8.20;58.37;102128.55;117353;1182;22934;-51
2022/01/13 02:04:35;;;;;;;14.00;6.90;;;;;;;-8.20;58.25;102131.56;117503;1182;22928;-64
2022/01/13 02:07:05;;;;;;;18.40;7.20;;;;;;;-8.21;58.35;102125.58;117331;1185;23472;-63
2022/01/13 02:09:37;;;;;;;13.50;6.80;;;;;;;-8.20;58.45;102117.40;117408;1185;22606;-63
2022/01/13 02:12:09;;;;;;;16.00;6.70;;;;;;;-8.22;58.20;102117.80;117372;1185;23686;-50
2022/01/13 02:14:58;;;;;;;14.10;6.30;;;;;;;-8.14;58.13;102116.08;117352;1182;22873;-50
2022/01/13 02:17:28;;;;;;;16.60;6.70;;;;;;;-8.12;57.99;102109.25;117300;1185;23474;-62
2022/01/13 02:19:57;;;;;;;15.20;6.60;;;;;;;-8.11;58.16;102107.16;117493;1182;22808;-50
2022/01/13 02:22:25;;;;;;;16.20;6.70;;;;;;;-8.11;58.08;102116.55;117313;1185;23553;-50
2022/01/13 02:24:54;;;;;;;18.20;7.40;;;;;;;-8.11;58.09;102112.23;117319;1184;23541;-50
2022/01/13 02:27:22;;;;;;;14.60;6.70;;;;;;;-8.11;57.98;102117.54;117426;1185;23484;-50
2022/01/13 02:29:50;;;;;;;13.30;5.30;;;;;;;-8.12;58.00;102114.95;117437;1176;21846;-64
2022/01/13 02:32:19;;;;;;;18.90;7.60;;;;;;;-8.13;58.03;102108.70;117449;1183;23449;-50
2022/01/13 02:34:48;;;;;;;15.50;6.40;;;;;;;-8.16;57.98;102109.96;117384;1185;21867;-63
2022/01/13 02:37:16;;;;;;;16.30;7.70;;;;;;;-8.19;57.85;102107.83;117350;1185;23451;-64
2022/01/13 02:39:44;;;;;;;14.30;6.80;;;;;;;-8.22;58.03;102108.04;117386;1185;23461;-50
2022/01/13 02:42:14;;;;;;;15.40;7.50;;;;;;;-8.23;57.96;102110.20;117321;1176;21858;-50
2022/01/13 02:45:05;;;;;;;22.40;9.60;;;;;;;-8.23;57.97;102114.46;117496;1182;24608;-50
2022/01/13 02:47:58;;;;;;;15.60;6.70;;;;;;;-8.23;57.92;102113.41;117340;1185;21857;-58
2022/01/13 02:50:22;;;;;;;13.90;6.60;;;;;;;-8.25;57.95;102118.00;117405;1185;21857;-64
2022/01/13 02:52:51;;;;;;;19.20;6.90;;;;;;;-8.26;57.91;102129.69;117392;1186;23475;-64
2022/01/13 02:55:19;;;;;;;13.90;6.80;;;;;;;-8.27;57.93;102131.14;117448;1185;21853;-50
2022/01/13 02:57:47;;;;;;;16.70;7.50;;;;;;;-8.27;57.96;102126.30;117392;1183;21854;-63
2022/01/13 03:00:17;;;;;;;14.60;7.00;;;;;;;-8.28;57.99;102121.80;117390;1185;23450;-50
2022/01/13 03:02:48;;;;;;;15.60;7.10;;;;;;;-8.30;57.91;102124.90;117447;1182;21919;-62
2022/01/13 03:05:16;;;;;;;13.70;6.50;;;;;;;-8.32;57.99;102125.88;117414;1182;23512;-50
2022/01/13 03:07:44;;;;;;;15.40;7.00;;;;;;;-8.35;57.91;102128.53;117457;1186;23458;-63
2022/01/13 03:10:18;;;;;;;20.80;8.10;;;;;;;-8.39;57.84;102130.19;117392;1183;23470;-62
2022/01/13 03:12:47;;;;;;;15.60;7.80;;;;;;;-8.42;57.84;102132.80;117461;1186;22869;-50
2022/01/13 03:15:15;;;;;;;15.30;7.70;;;;;;;-8.44;57.91;102130.37;117429;1185;21855;-51
2022/01/13 03:17:44;;;;;;;13.80;6.20;;;;;;;-8.46;57.71;102133.48;117397;1185;22971;-62
2022/01/13 03:20:15;;;;;;;16.30;7.70;;;;;;;-8.46;57.92;102135.97;117387;1185;23564;-50
2022/01/13 03:22:43;;;;;;;18.60;8.10;;;;;;;-8.47;57.92;102134.02;117421;1184;22995;-50
2022/01/13 03:25:12;;;;;;;16.10;6.30;;;;;;;-8.47;58.01;102130.45;117366;1185;21864;-60
2022/01/13 03:27:41;;;;;;;18.30;8.00;;;;;;;-8.49;57.82;102130.99;117386;1182;21916;-62
2022/01/13 03:30:10;;;;;;;22.80;8.80;;;;;;;-8.62;58.01;102136.63;117394;1185;23468;-63
2022/01/13 03:32:38;;;;;;;20.60;7.10;;;;;;;-8.67;58.17;102132.79;117362;1186;22995;-63
2022/01/13 03:35:07;;;;;;;18.30;7.80;;;;;;;-8.69;58.25;102135.52;117360;1186;23570;-63
2022/01/13 03:37:35;;;;;;;19.10;7.30;;;;;;;-8.70;58.34;102138.63;117378;1185;23475;-50
2022/01/13 03:40:03;;;;;;;18.60;7.40;;;;;;;-8.71;58.20;102135.78;117290;1185;23445;-63
2022/01/13 03:42:32;;;;;;;18.90;7.50;;;;;;;-8.71;58.26;102133.44;117438;1185;22724;-63
2022/01/13 03:45:00;;;;;;;15.70;7.20;;;;;;;-8.70;58.23;102134.73;117345;1185;23483;-63
2022/01/13 03:47:29;;;;;;;12.60;5.50;;;;;;;-8.68;58.39;102141.75;117471;1185;21868;-63
2022/01/13 03:49:57;;;;;;;20.00;7.90;;;;;;;-8.68;58.44;102137.50;117403;1185;22078;-64
2022/01/13 03:52:29;;;;;;;17.30;7.60;;;;;;;-8.70;58.32;102145.71;117407;1185;23471;-50
2022/01/13 03:55:30;;;;;;;17.80;7.40;;;;;;;-8.70;58.23;102147.64;117305;1178;23014;-63
2022/01/13 03:58:46;;;;;;;18.40;8.00;;;;;;;-8.67;58.28;102143.52;117418;1182;23587;-50
2022/01/13 04:01:56;;;;;;;17.80;7.80;;;;;;;-8.68;58.13;102150.34;117051;1186;23145;-64
2022/01/13 04:04:24;;;;;;;14.20;6.70;;;;;;;-8.70;58.19;102151.91;117411;1186;21859;-64
2022/01/13 04:07:13;;;;;;;19.10;7.90;;;;;;;-8.72;58.25;102153.23;117368;1185;23484;-63
2022/01/13 04:09:43;;;;;;;22.00;8.10;;;;;;;-8.73;58.17;102146.49;117425;1186;21854;-63
2022/01/13 04:12:13;;;;;;;17.40;7.30;;;;;;;-8.73;58.16;102144.92;117397;1185;22104;-50
2022/01/13 04:14:59;;;;;;;25.10;8.20;;;;;;;-8.73;58.21;102153.92;117328;1185;23646;-64
2022/01/13 04:17:28;;;;;;;19.60;8.20;;;;;;;-8.74;58.16;102150.79;117374;1185;22994;-50
2022/01/13 04:19:56;;;;;;;19.10;8.40;;;;;;;-8.75;58.15;102153.13;117517;1189;21861;-63
2022/01/13 04:22:25;;;;;;;17.00;7.50;;;;;;;-8.76;58.23;102143.48;117448;1185;21851;-49
2022/01/13 04:24:54;;;;;;;19.20;7.90;;;;;;;-8.75;58.33;102143.73;117324;1185;21855;-50
2022/01/13 04:27:32;;;;;;;16.10;7.70;;;;;;;-8.77;58.18;102140.85;117405;1185;23475;-50
2022/01/13 04:32:43;;;;;;;19.10;8.40;;;;;;;-8.74;58.24;102139.58;117344;1183;23448;-50
2022/01/13 04:35:11;;;;;;;19.70;8.40;;;;;;;-8.75;58.16;102142.91;117403;1185;23587;-50
2022/01/13 04:37:39;;;;;;;16.70;7.80;;;;;;;-8.75;58.24;102143.52;117393;1185;23478;-50
2022/01/13 04:40:11;;;;;;;16.90;7.40;;;;;;;-8.75;58.25;102148.54;117459;1186;21851;-50
2022/01/13 04:42:42;;;;;;;20.50;9.30;;;;;;;-8.73;58.22;102153.10;117407;1182;22922;-63
2022/01/13 04:45:10;;;;;;;19.30;8.20;;;;;;;-8.73;58.17;102154.80;117337;1185;21854;-50
2022/01/13 04:47:40;;;;;;;;;;;;;;;-8.75;58.05;102156.34;117442;1182;21875;-50
2022/01/13 04:50:09;;;;;;;19.90;7.30;;;;;;;-8.76;58.27;102156.77;117374;1186;23451;-50
2022/01/13 04:52:37;;;;;;;17.20;7.40;;;;;;;-8.75;58.26;102158.23;117438;1182;23560;-63
2022/01/13 04:55:10;;;;;;;17.10;7.80;;;;;;;-8.73;58.35;102160.66;117428;1185;23452;-50
2022/01/13 04:57:39;;;;;;;18.80;7.50;;;;;;;-8.69;58.33;102163.91;117413;1185;22921;-62
2022/01/13 05:00:10;;;;;;;21.10;8.60;;;;;;;-8.65;58.41;102163.08;117421;1185;22937;-50
2022/01/13 05:02:38;;;;;;;18.10;8.00;;;;;;;-8.61;58.39;102162.90;117387;1185;21999;-63
2022/01/13 05:05:07;;;;;;;18.80;7.20;;;;;;;-8.58;58.47;102162.40;117372;1186;23464;-50
2022/01/13 05:07:35;;;;;;;19.00;7.70;;;;;;;-8.56;58.41;102161.64;117433;1186;21860;-50
2022/01/13 05:10:04;;;;;;;17.20;8.10;;;;;;;-8.52;58.52;102161.56;117464;1186;22800;-63
2022/01/13 05:12:44;;;;;;;21.40;7.90;;;;;;;-8.48;58.46;102164.23;117398;1186;22618;-50
2022/01/13 05:15:17;;;;;;;16.40;7.10;;;;;;;-8.47;58.43;102163.29;117346;1185;21948;-49
2022/01/13 05:18:03;;;;;;;17.20;7.70;;;;;;;-8.46;58.54;102160.32;117434;1185;23552;-49
2022/01/13 05:21:17;;;;;;;16.50;8.00;;;;;;;-8.43;58.63;102158.80;117429;1185;21970;-63
2022/01/13 05:23:26;;;;;;;16.10;7.30;;;;;;;-8.42;58.43;102157.02;117386;1186;21857;-63
2022/01/13 05:25:54;;;;;;;18.10;8.60;;;;;;;-8.42;58.50;102164.86;117375;1185;23448;-62
2022/01/13 05:28:22;;;;;;;19.50;8.30;;;;;;;-8.41;58.56;102172.06;117405;1186;21860;-62
2022/01/13 05:30:51;;;;;;;46.90;15.50;;;;;;;-8.40;58.40;102170.77;117447;1176;21864;-62
2022/01/13 05:33:19;;;;;;;40.90;14.30;;;;;;;-8.33;58.70;102174.71;117443;1182;23480;-63
2022/01/13 05:35:47;;;;;;;30.00;10.70;;;;;;;-8.29;58.50;102176.73;117335;1183;23448;-64
2022/01/13 05:38:15;;;;;;;149.90;34.40;;;;;;;-8.38;58.08;102181.33;117372;1186;23518;-50
2022/01/13 05:40:44;;;;;;;93.30;24.30;;;;;;;-8.60;57.93;102183.91;117341;1182;23456;-63
2022/01/13 05:43:12;;;;;;;24.90;9.60;;;;;;;-8.69;58.17;102186.14;117413;1186;23515;-50
2022/01/13 05:45:40;;;;;;;24.10;9.00;;;;;;;-8.74;58.28;102184.20;117380;1182;21862;-64
2022/01/13 05:48:08;;;;;;;21.50;8.10;;;;;;;-8.78;58.22;102188.40;117452;1183;23446;-63
2022/01/13 05:50:37;;;;;;;18.90;8.40;;;;;;;-8.81;58.22;102194.55;117400;1182;23576;-65
2022/01/13 05:53:05;;;;;;;20.60;8.80;;;;;;;-8.83;58.36;102204.11;117398;1185;23446;-49
2022/01/13 05:55:34;;;;;;;20.00;8.50;;;;;;;-8.78;58.30;102214.94;117360;1186;23576;-49
2022/01/13 05:58:02;;;;;;;21.30;8.50;;;;;;;-8.71;58.43;102220.25;117312;1185;23474;-49
2022/01/13 06:00:30;;;;;;;29.00;11.50;;;;;;;-8.66;58.29;102220.67;117349;1185;21844;-49
2022/01/13 06:02:59;;;;;;;23.30;10.30;;;;;;;-8.62;58.34;102227.64;117357;1185;23453;-67
2022/01/13 06:05:27;;;;;;;30.10;11.60;;;;;;;-8.62;58.46;102233.17;117384;1186;23548;-50
2022/01/13 06:07:55;;;;;;;55.40;17.20;;;;;;;-8.57;58.68;102233.78;117452;1186;21880;-50
2022/01/13 06:10:24;;;;;;;38.40;14.20;;;;;;;-8.56;58.49;102228.23;117413;1186;21855;-50
2022/01/13 06:12:54;;;;;;;24.90;11.30;;;;;;;-8.54;58.58;102233.34;117404;1185;24009;-64
2022/01/13 06:15:24;;;;;;;18.90;9.20;;;;;;;-8.50;58.45;102229.15;117431;1183;22991;-65
2022/01/13 06:17:54;;;;;;;17.40;7.80;;;;;;;-8.49;58.40;102225.29;117308;1182;23576;-49
2022/01/13 06:20:22;;;;;;;;;;;;;;;-8.47;58.43;102221.91;117376;1186;23571;-50
2022/01/13 06:22:51;;;;;;;16.90;8.00;;;;;;;-8.46;58.52;102224.73;117338;1183;23529;-68
2022/01/13 06:25:19;;;;;;;14.70;6.80;;;;;;;-8.46;58.54;102222.48;117385;1185;22937;-65
2022/01/13 06:27:48;;;;;;;21.20;8.90;;;;;;;-8.46;58.48;102218.21;117330;1185;21846;-66
2022/01/13 06:30:37;;;;;;;23.40;9.70;;;;;;;-8.43;58.68;102225.65;117369;1185;23469;-65
2022/01/13 06:33:05;;;;;;;18.00;8.30;;;;;;;-8.39;58.50;102227.59;117214;1185;21850;-64
2022/01/13 06:35:33;;;;;;;20.60;10.40;;;;;;;-8.34;58.63;102228.56;117430;1185;23449;-66
2022/01/13 06:38:02;;;;;;;19.10;9.00;;;;;;;-8.28;58.65;102219.79;117346;1183;21992;-52
2022/01/13 06:40:30;;;;;;;17.50;8.90;;;;;;;-8.21;58.71;102210.52;117361;1185;23475;-51
2022/01/13 06:42:58;;;;;;;23.60;10.50;;;;;;;-8.12;58.78;102214.73;117394;1182;23449;-51
2022/01/13 06:45:27;;;;;;;21.80;9.60;;;;;;;-8.00;58.80;102218.92;117408;1185;23468;-65
2022/01/13 06:47:55;;;;;;;22.50;8.70;;;;;;;-7.87;58.95;102213.49;117336;1189;23449;-61
2022/01/13 06:50:24;;;;;;;21.40;10.50;;;;;;;-7.76;59.01;102203.73;117383;1182;23620;-51
2022/01/13 06:52:52;;;;;;;20.60;9.70;;;;;;;-7.69;58.92;102195.67;117414;1185;23554;-51
2022/01/13 06:55:20;;;;;;;27.10;10.60;;;;;;;-7.61;58.97;102191.77;117369;1186;22103;-52
2022/01/13 06:57:48;;;;;;;21.80;10.10;;;;;;;-7.46;58.95;102186.41;117333;1185;24148;-71
2022/01/13 07:00:17;;;;;;;21.20;9.80;;;;;;;-7.34;59.06;102189.92;117367;1185;24243;-50
2022/01/13 07:02:45;;;;;;;26.70;12.30;;;;;;;-7.28;58.99;102193.94;117268;1183;23480;-50
2022/01/13 07:05:14;;;;;;;26.80;11.00;;;;;;;-7.22;58.97;102187.19;117425;1186;23878;-65
2022/01/13 07:07:42;;;;;;;29.60;12.80;;;;;;;-7.17;59.09;102183.54;117435;1185;24159;-65
2022/01/13 07:10:21;;;;;;;22.50;11.80;;;;;;;-7.10;59.11;102183.77;117363;1186;23484;-65
2022/01/13 07:12:49;;;;;;;21.70;10.80;;;;;;;-7.04;59.08;102180.21;117390;1183;23212;-50
2022/01/13 07:15:18;;;;;;;23.40;11.20;;;;;;;-6.99;59.12;102167.36;117367;1183;23468;-65
2022/01/13 07:17:46;;;;;;;20.60;10.50;;;;;;;-6.91;59.14;102164.48;117361;1185;23451;-50
2022/01/13 07:20:15;;;;;;;21.30;11.00;;;;;;;-6.80;59.25;102163.72;117363;1186;22735;-51
2022/01/13 07:22:43;;;;;;;34.10;14.60;;;;;;;-6.71;59.15;102166.02;117383;1183;21868;-65
2022/01/13 07:25:12;;;;;;;52.60;24.10;;;;;;;-6.62;59.20;102174.48;117424;1182;23470;-52
2022/01/13 07:27:40;;;;;;;33.20;14.60;;;;;;;-6.52;59.27;102177.02;117424;1182;23465;-51
2022/01/13 07:30:09;;;;;;;27.20;14.20;;;;;;;-6.44;59.21;102176.03;117406;1182;22804;-50
2022/01/13 07:32:38;;;;;;;26.80;11.60;;;;;;;-6.39;59.20;102177.42;117430;1185;21843;-63
2022/01/13 07:35:07;;;;;;;25.20;13.20;;;;;;;-6.33;59.27;102172.97;117454;1186;21851;-60
2022/01/13 07:37:35;;;;;;;22.00;11.20;;;;;;;-6.27;59.27;102164.09;117416;1183;21853;-63
2022/01/13 07:40:04;;;;;;;19.90;9.70;;;;;;;-6.25;59.34;102160.64;117423;1183;21867;-64
2022/01/13 07:42:35;;;;;;;22.10;10.80;;;;;;;-6.21;59.35;102155.15;117388;1188;21889;-61
2022/01/13 07:45:04;;;;;;;21.70;11.30;;;;;;;-6.12;59.37;102155.71;117371;1186;23554;-63
2022/01/13 07:47:32;;;;;;;25.40;12.50;;;;;;;-6.04;59.49;102159.39;117488;1184;22933;-56
2022/01/13 07:50:00;;;;;;;24.10;11.00;;;;;;;-5.91;59.56;102162.73;117537;1182;23474;-64
2022/01/13 07:52:29;;;;;;;22.20;10.70;;;;;;;-5.70;59.45;102166.55;117440;1185;23448;-68
2022/01/13 07:54:57;;;;;;;20.60;10.90;;;;;;;-5.53;59.24;102168.95;117447;1182;23539;-51
2022/01/13 07:57:26;;;;;;;23.20;11.10;;;;;;;-5.38;59.28;102164.66;117376;1185;22619;-64
2022/01/13 07:59:56;;;;;;;22.80;11.50;;;;;;;-5.27;59.36;102167.76;117408;1186;23907;-64
2022/01/13 08:02:27;;;;;;;20.60;11.10;;;;;;;-5.17;59.42;102168.41;117448;1186;21923;-64
2022/01/13 08:04:56;;;;;;;22.70;11.20;;;;;;;-5.07;59.36;102171.94;117424;1182;22048;-52
2022/01/13 08:07:25;;;;;;;23.80;11.10;;;;;;;-4.99;59.26;102176.80;117380;1185;22942;-66
2022/01/13 08:09:54;;;;;;;21.70;11.30;;;;;;;-4.98;59.26;102173.87;117295;1185;23553;-53
2022/01/13 08:12:22;;;;;;;21.90;11.20;;;;;;;-4.90;59.33;102169.80;117372;1183;23558;-53
2022/01/13 08:14:51;;;;;;;24.30;12.90;;;;;;;-4.75;59.40;102166.92;117390;1186;23478;-54
2022/01/13 08:20:09;;;;;;;22.90;11.80;;;;;;;-4.48;59.34;102153.23;117339;1186;22901;-67
2022/01/13 08:22:37;;;;;;;23.80;11.90;;;;;;;-4.37;59.55;102150.66;117386;1182;21857;-68
2022/01/13 08:25:09;;;;;;;20.50;9.40;;;;;;;-4.25;59.58;102149.48;117405;1183;23579;-66
2022/01/13 08:27:38;;;;;;;20.40;10.70;;;;;;;-4.15;59.57;102151.42;117444;1182;23471;-52
2022/01/13 08:30:06;;;;;;;22.10;10.20;;;;;;;-4.05;59.72;102151.17;117424;1185;21883;-65
2022/01/13 08:32:35;;;;;;;17.70;10.00;;;;;;;-3.94;59.71;102146.48;117362;1186;22988;-65
2022/01/13 08:35:04;;;;;;;17.50;9.50;;;;;;;-3.87;59.62;102145.97;117442;1185;24169;-65
2022/01/13 08:37:33;;;;;;;17.30;9.00;;;;;;;-3.79;59.63;102150.34;117401;1182;21927;-54
2022/01/13 08:40:04;;;;;;;20.40;9.30;;;;;;;-3.71;59.45;102152.83;117427;1185;21858;-54
2022/01/13 08:42:33;;;;;;;17.20;9.00;;;;;;;-3.65;59.50;102142.25;117401;1181;22979;-65
2022/01/13 08:45:06;;;;;;;21.80;10.30;;;;;;;-3.54;59.73;102132.64;117408;1186;22158;-53
2022/01/13 08:47:35;;;;;;;16.90;8.60;;;;;;;-3.40;59.73;102140.01;117404;1176;21898;-53
2022/01/13 08:50:06;;;;;;;17.60;9.10;;;;;;;-3.29;59.75;102141.99;117414;1176;21851;-65
2022/01/13 08:52:38;;;;;;;17.20;9.60;;;;;;;-3.20;59.71;102138.33;117460;1181;22701;-55
2022/01/13 08:55:07;;;;;;;20.50;9.50;;;;;;;-3.09;59.70;102139.77;117434;1186;22091;-65
2022/01/13 08:57:35;;;;;;;17.80;10.30;;;;;;;-2.94;59.72;102134.67;117408;1186;21872;-65
2022/01/13 09:00:06;;;;;;;21.30;10.70;;;;;;;-2.81;59.73;102126.94;117357;1182;24168;-54
2022/01/13 09:02:41;;;;;;;23.20;12.20;;;;;;;-2.67;59.83;102122.29;117325;1183;24277;-55
2022/01/13 09:05:12;;;;;;;21.90;11.60;;;;;;;-2.63;59.71;102107.95;117415;1185;21875;-54
2022/01/13 09:07:41;;;;;;;22.60;12.10;;;;;;;-2.52;59.80;102100.95;117349;1182;23563;-65
2022/01/13 09:10:10;;;;;;;23.10;12.30;;;;;;;-2.47;59.69;102089.77;117411;1183;21916;-65
2022/01/13 09:12:38;;;;;;;23.40;12.50;;;;;;;-2.35;59.89;102076.45;117413;1182;21946;-55
2022/01/13 09:15:18;;;;;;;20.60;11.30;;;;;;;-2.23;59.71;102063.70;117503;1182;21850;-65
2022/01/13 09:17:51;;;;;;;23.60;12.90;;;;;;;-2.10;59.90;102053.02;117399;1183;22921;-64
2022/01/13 09:20:19;;;;;;;23.90;13.40;;;;;;;-2.01;59.93;102043.11;117396;1186;21866;-54
2022/01/13 09:22:48;;;;;;;30.10;13.80;;;;;;;-1.92;59.81;102037.98;117469;1186;21970;-53
2022/01/13 09:25:16;;;;;;;23.30;14.00;;;;;;;-1.91;59.79;102034.78;117430;1186;23478;-55
2022/01/13 09:27:45;;;;;;;24.90;14.30;;;;;;;-1.81;59.95;102025.48;117459;1186;22645;-57
2022/01/13 09:30:13;;;;;;;40.00;20.10;;;;;;;-1.70;59.91;102018.93;117339;1186;22620;-65
2022/01/13 09:32:42;;;;;;;29.00;15.80;;;;;;;-1.58;60.09;102014.90;117432;1185;21857;-54
2022/01/13 09:35:10;;;;;;;24.40;13.70;;;;;;;-1.44;60.10;102015.76;117411;1182;23551;-66
2022/01/13 09:37:38;;;;;;;21.90;12.80;;;;;;;-1.39;60.02;102020.02;117536;1186;22982;-55
2022/01/13 09:40:09;;;;;;;24.10;12.80;;;;;;;-1.39;59.76;102014.55;117441;1182;21841;-66
2022/01/13 09:42:39;;;;;;;25.00;13.80;;;;;;;-1.37;59.63;102009.14;117448;1183;23449;-58
2022/01/13 09:45:08;;;;;;;24.50;13.60;;;;;;;-1.31;59.65;102004.36;117296;1186;23091;-65
2022/01/13 09:47:37;;;;;;;26.10;15.30;;;;;;;-1.15;59.85;102004.60;117431;1186;21848;-65
2022/01/13 09:50:10;;;;;;;24.30;14.00;;;;;;;-1.02;60.24;102012.52;117447;1186;21863;-65
2022/01/13 09:52:38;;;;;;;24.80;14.60;;;;;;;-0.93;60.09;102014.92;117450;1181;23554;-55
2022/01/13 09:55:07;;;;;;;26.80;13.80;;;;;;;-0.80;60.07;102006.38;117410;1186;23455;-66
2022/01/13 09:57:35;;;;;;;22.70;13.30;;;;;;;-0.71;59.89;101996.71;117436;1185;21868;-55
2022/01/13 10:00:04;;;;;;;25.30;13.80;;;;;;;-0.62;59.96;101988.13;117408;1176;21866;-64
2022/01/13 10:02:34;;;;;;;22.70;13.00;;;;;;;-0.60;60.09;101988.08;117423;1186;22101;-56
2022/01/13 10:05:03;;;;;;;25.80;14.00;;;;;;;-0.57;59.77;101986.02;117448;1183;23563;-55
2022/01/13 10:07:35;;;;;;;23.30;14.20;;;;;;;-0.49;60.01;101989.09;117409;1186;21855;-55
2022/01/13 10:10:27;;;;;;;26.50;14.70;;;;;;;-0.42;59.92;101989.96;117363;1186;23654;-56
2022/01/13 10:13:00;;;;;;;21.70;12.20;;;;;;;-0.37;60.11;101982.17;117449;1185;21865;-64
2022/01/13 10:18:42;;;;;;;24.20;15.20;;;;;;;-0.38;59.77;101975.52;117380;1189;23454;-65
2022/01/13 10:21:12;;;;;;;26.00;15.30;;;;;;;-0.49;59.68;101971.33;117429;1182;21845;-66
2022/01/13 10:24:06;;;;;;;27.90;16.20;;;;;;;-0.51;59.71;101965.73;117433;1186;21857;-54
2022/01/13 10:26:34;;;;;;;24.80;13.50;;;;;;;-0.40;59.69;101970.27;117440;1185;21845;-65
2022/01/13 10:29:04;;;;;;;25.10;14.80;;;;;;;-0.37;59.78;101960.26;117359;1182;23473;-55
2022/01/13 10:31:51;;;;;;;29.80;16.50;;;;;;;-0.36;59.81;101950.86;117421;1185;22101;-65
2022/01/13 10:34:21;;;;;;;25.50;15.50;;;;;;;-0.28;59.91;101942.17;117298;1184;21845;-65
2022/01/13 10:37:03;;;;;;;29.10;16.10;;;;;;;-0.27;59.90;101945.29;117376;1182;23599;-55
2022/01/13 10:39:57;;;;;;;28.40;16.00;;;;;;;-0.26;59.87;101947.30;117417;1180;23645;-56
2022/01/13 10:45:10;;;;;;;26.40;15.50;;;;;;;0.03;60.13;101944.21;117374;1176;21836;-65
2022/01/13 10:47:41;;;;;;;28.20;15.70;;;;;;;0.10;59.78;101933.95;118466;1185;23569;-56
2022/01/13 10:50:11;;;;;;;22.70;14.00;;;;;;;0.14;59.83;101937.75;118435;1184;21855;-55
2022/01/13 10:52:40;;;;;;;22.60;14.50;;;;;;;0.17;59.64;101942.95;117389;1186;22712;-55
2022/01/13 10:55:09;;;;;;;26.50;15.10;;;;;;;0.24;59.74;101948.33;117400;1183;21864;-55
2022/01/13 10:57:57;;;;;;;27.10;14.70;;;;;;;0.39;59.80;101960.33;117329;1182;21866;-66
2022/01/13 11:00:26;;;;;;;32.60;16.30;;;;;;;0.48;60.08;101958.06;117360;1185;21886;-65
2022/01/13 11:03:00;;;;;;;24.70;14.80;;;;;;;0.55;60.07;101957.10;117377;1185;21873;-64
2022/01/13 11:05:30;;;;;;;29.40;17.10;;;;;;;0.61;59.86;101949.97;117320;1186;23480;-55
2022/01/13 11:08:02;;;;;;;22.60;13.40;;;;;;;0.60;59.86;101946.28;117341;1185;22645;-66
2022/01/13 11:10:30;;;;;;;20.40;12.10;;;;;;;0.63;59.97;101950.23;117269;1186;23486;-56
2022/01/13 11:12:59;;;;;;;27.50;16.30;;;;;;;0.68;59.61;101943.05;117453;1186;22924;-56
2022/01/13 11:15:27;;;;;;;25.20;14.70;;;;;;;0.74;60.12;101931.83;117451;1185;22655;-56
2022/01/13 11:17:57;;;;;;;24.10;14.10;;;;;;;0.82;60.02;101924.79;117484;1186;21855;-56
2022/01/13 11:20:26;;;;;;;24.20;14.20;;;;;;;0.80;59.71;101917.06;117427;1183;23461;-66
2022/01/13 11:22:56;;;;;;;24.90;14.40;;;;;;;0.76;59.61;101901.98;117448;1186;21948;-66
2022/01/13 11:25:26;;;;;;;26.60;14.30;;;;;;;0.80;59.82;101890.84;117395;1185;22988;-56
2022/01/13 11:27:55;;;;;;;23.70;14.30;;;;;;;0.85;59.93;101879.85;117537;1182;23451;-55
2022/01/13 11:30:26;;;;;;;22.40;13.80;;;;;;;0.88;59.83;101873.45;117319;1186;23548;-66
2022/01/13 11:32:56;;;;;;;25.30;13.20;;;;;;;0.91;59.74;101861.32;117398;1181;23576;-56
2022/01/13 11:35:29;;;;;;;22.90;13.80;;;;;;;0.97;59.56;101844.86;117298;1186;23646;-70
2022/01/13 11:37:58;;;;;;;27.00;15.00;;;;;;;1.04;60.04;101835.38;117325;1182;23471;-58
2022/01/13 11:40:26;;;;;;;25.90;14.80;;;;;;;1.06;59.44;101819.36;117327;1185;22845;-69
2022/01/13 11:42:59;;;;;;;34.90;18.70;;;;;;;1.10;59.72;101809.04;117380;1183;23557;-65
2022/01/13 11:45:27;;;;;;;34.20;19.20;;;;;;;1.22;59.85;101804.44;117452;1186;23576;-55